sensor_id;sensor_type;location;lat;lon;timestamp;temperature;humidity
71843;DHT22;59691;-36.632;-64.320;2023-03-12T00:00:54;28.80;70.10
71843;DHT22;59691;-36.632;-64.320;2023-03-12T00:03:20;28.80;70.10
71843;DHT22;59691;-36.632;-64.320;2023-03-12T00:05:47;28.70;70.00
71843;DHT22;59691;-36.632;-64.320;2023-03-12T00:08:13;28.70;70.00
71843;DHT22;59691;-36.632;-64.320;2023-03-12T00:10:39;28.70;70.00
71843;DHT22;59691;-36.632;-64.320;2023-03-12T00:13:06;28.70;70.10
71843;DHT22;59691;-36.632;-64.320;2023-03-12T00:15:36;28.70;70.20
71843;DHT22;59691;-36.632;-64.320;2023-03-12T00:18:03;28.70;70.20
71843;DHT22;59691;-36.632;-64.320;2023-03-12T00:20:29;28.70;70.30
71843;DHT22;59691;-36.632;-64.320;2023-03-12T00:22:56;28.70;70.30
71843;DHT22;59691;-36.632;-64.320;2023-03-12T00:25:22;28.70;70.20
71843;DHT22;59691;-36.632;-64.320;2023-03-12T00:27:48;28.60;70.00
71843;DHT22;59691;-36.632;-64.320;2023-03-12T00:30:15;28.60;70.10
71843;DHT22;59691;-36.632;-64.320;2023-03-12T00:32:41;28.60;70.10
71843;DHT22;59691;-36.632;-64.320;2023-03-12T00:35:07;28.60;70.10
71843;DHT22;59691;-36.632;-64.320;2023-03-12T00:37:35;28.60;70.10
71843;DHT22;59691;-36.632;-64.320;2023-03-12T00:40:01;28.60;70.20
71843;DHT22;59691;-36.632;-64.320;2023-03-12T00:42:30;28.60;70.10
71843;DHT22;59691;-36.632;-64.320;2023-03-12T00:44:56;28.50;70.00
71843;DHT22;59691;-36.632;-64.320;2023-03-12T00:47:23;28.50;70.20
71843;DHT22;59691;-36.632;-64.320;2023-03-12T00:49:49;28.50;70.20
71843;DHT22;59691;-36.632;-64.320;2023-03-12T00:52:15;28.50;70.20
71843;DHT22;59691;-36.632;-64.320;2023-03-12T00:54:42;28.50;70.30
71843;DHT22;59691;-36.632;-64.320;2023-03-12T00:57:08;28.50;70.30
71843;DHT22;59691;-36.632;-64.320;2023-03-12T00:59:34;28.50;70.30
71843;DHT22;59691;-36.632;-64.320;2023-03-12T01:02:05;28.50;70.30
71843;DHT22;59691;-36.632;-64.320;2023-03-12T01:04:31;28.50;70.30
71843;DHT22;59691;-36.632;-64.320;2023-03-12T01:06:58;28.40;70.30
71843;DHT22;59691;-36.632;-64.320;2023-03-12T01:09:24;28.50;70.40
71843;DHT22;59691;-36.632;-64.320;2023-03-12T01:11:51;28.40;70.30
71843;DHT22;59691;-36.632;-64.320;2023-03-12T01:14:17;28.50;70.40
71843;DHT22;59691;-36.632;-64.320;2023-03-12T01:16:43;28.40;70.40
71843;DHT22;59691;-36.632;-64.320;2023-03-12T01:19:10;28.40;70.40
71843;DHT22;59691;-36.632;-64.320;2023-03-12T01:21:36;28.40;70.40
71843;DHT22;59691;-36.632;-64.320;2023-03-12T01:24:03;28.40;70.40
71843;DHT22;59691;-36.632;-64.320;2023-03-12T01:26:29;28.40;70.40
71843;DHT22;59691;-36.632;-64.320;2023-03-12T01:28:55;28.40;70.40
71843;DHT22;59691;-36.632;-64.320;2023-03-12T01:31:22;28.30;70.20
71843;DHT22;59691;-36.632;-64.320;2023-03-12T01:33:49;28.30;70.20
71843;DHT22;59691;-36.632;-64.320;2023-03-12T01:36:22;28.30;70.20
71843;DHT22;59691;-36.632;-64.320;2023-03-12T01:38:52;28.30;70.20
71843;DHT22;59691;-36.632;-64.320;2023-03-12T01:41:19;28.30;70.30
71843;DHT22;59691;-36.632;-64.320;2023-03-12T01:43:45;28.30;70.40
71843;DHT22;59691;-36.632;-64.320;2023-03-12T01:48:39;28.30;70.40
71843;DHT22;59691;-36.632;-64.320;2023-03-12T01:51:07;28.30;70.40
71843;DHT22;59691;-36.632;-64.320;2023-03-12T01:53:34;28.20;70.40
71843;DHT22;59691;-36.632;-64.320;2023-03-12T01:56:00;28.20;70.40
71843;DHT22;59691;-36.632;-64.320;2023-03-12T01:58:27;28.20;70.50
71843;DHT22;59691;-36.632;-64.320;2023-03-12T02:00:53;28.20;70.60
71843;DHT22;59691;-36.632;-64.320;2023-03-12T02:03:20;28.20;70.70
71843;DHT22;59691;-36.632;-64.320;2023-03-12T02:05:51;28.10;70.60
71843;DHT22;59691;-36.632;-64.320;2023-03-12T02:08:19;28.10;70.80
71843;DHT22;59691;-36.632;-64.320;2023-03-12T02:10:46;28.10;70.90
71843;DHT22;59691;-36.632;-64.320;2023-03-12T02:13:13;28.10;71.00
71843;DHT22;59691;-36.632;-64.320;2023-03-12T02:15:39;28.10;71.10
71843;DHT22;59691;-36.632;-64.320;2023-03-12T02:18:06;28.10;71.90
71843;DHT22;59691;-36.632;-64.320;2023-03-12T02:23:28;28.10;71.40
71843;DHT22;59691;-36.632;-64.320;2023-03-12T02:25:56;28.10;71.50
71843;DHT22;59691;-36.632;-64.320;2023-03-12T02:28:24;28.10;71.60
71843;DHT22;59691;-36.632;-64.320;2023-03-12T02:30:51;28.00;71.70
71843;DHT22;59691;-36.632;-64.320;2023-03-12T02:33:19;28.00;71.80
71843;DHT22;59691;-36.632;-64.320;2023-03-12T02:35:45;28.00;72.60
71843;DHT22;59691;-36.632;-64.320;2023-03-12T02:40:53;28.00;72.20
71843;DHT22;59691;-36.632;-64.320;2023-03-12T02:43:21;28.00;72.30
71843;DHT22;59691;-36.632;-64.320;2023-03-12T02:45:48;27.90;72.30
71843;DHT22;59691;-36.632;-64.320;2023-03-12T02:48:14;27.90;72.50
71843;DHT22;59691;-36.632;-64.320;2023-03-12T02:50:40;28.00;72.70
71843;DHT22;59691;-36.632;-64.320;2023-03-12T02:53:07;27.90;72.80
71843;DHT22;59691;-36.632;-64.320;2023-03-12T02:55:33;27.90;72.90
71843;DHT22;59691;-36.632;-64.320;2023-03-12T02:58:00;27.90;73.00
71843;DHT22;59691;-36.632;-64.320;2023-03-12T03:00:26;27.90;73.00
71843;DHT22;59691;-36.632;-64.320;2023-03-12T03:02:52;27.90;73.20
71843;DHT22;59691;-36.632;-64.320;2023-03-12T03:05:19;27.90;73.30
71843;DHT22;59691;-36.632;-64.320;2023-03-12T03:07:46;27.90;73.40
71843;DHT22;59691;-36.632;-64.320;2023-03-12T03:10:12;27.90;73.50
71843;DHT22;59691;-36.632;-64.320;2023-03-12T03:12:40;27.90;73.70
71843;DHT22;59691;-36.632;-64.320;2023-03-12T03:15:06;27.80;73.60
71843;DHT22;59691;-36.632;-64.320;2023-03-12T03:17:33;27.80;73.70
71843;DHT22;59691;-36.632;-64.320;2023-03-12T03:19:59;27.80;73.80
71843;DHT22;59691;-36.632;-64.320;2023-03-12T03:22:25;27.80;73.90
71843;DHT22;59691;-36.632;-64.320;2023-03-12T03:24:52;27.80;74.00
71843;DHT22;59691;-36.632;-64.320;2023-03-12T03:27:19;27.80;74.50
71843;DHT22;59691;-36.632;-64.320;2023-03-12T03:29:45;27.80;74.20
71843;DHT22;59691;-36.632;-64.320;2023-03-12T03:32:11;27.80;74.30
71843;DHT22;59691;-36.632;-64.320;2023-03-12T03:34:38;27.80;74.40
71843;DHT22;59691;-36.632;-64.320;2023-03-12T03:37:04;27.80;74.50
71843;DHT22;59691;-36.632;-64.320;2023-03-12T03:39:31;27.80;74.60
71843;DHT22;59691;-36.632;-64.320;2023-03-12T03:41:57;27.80;74.70
71843;DHT22;59691;-36.632;-64.320;2023-03-12T03:44:23;27.80;74.80
71843;DHT22;59691;-36.632;-64.320;2023-03-12T03:46:50;27.70;74.90
71843;DHT22;59691;-36.632;-64.320;2023-03-12T03:49:18;27.70;74.80
71843;DHT22;59691;-36.632;-64.320;2023-03-12T03:51:44;27.70;75.00
71843;DHT22;59691;-36.632;-64.320;2023-03-12T03:54:11;27.70;75.00
71843;DHT22;59691;-36.632;-64.320;2023-03-12T03:56:38;27.70;75.00
71843;DHT22;59691;-36.632;-64.320;2023-03-12T03:59:05;27.70;75.10
71843;DHT22;59691;-36.632;-64.320;2023-03-12T04:01:31;27.70;75.10
71843;DHT22;59691;-36.632;-64.320;2023-03-12T04:03:58;27.70;75.10
71843;DHT22;59691;-36.632;-64.320;2023-03-12T04:06:25;27.70;75.20
71843;DHT22;59691;-36.632;-64.320;2023-03-12T04:08:51;27.70;75.20
71843;DHT22;59691;-36.632;-64.320;2023-03-12T04:11:18;27.70;75.20
71843;DHT22;59691;-36.632;-64.320;2023-03-12T04:13:45;27.70;75.20
71843;DHT22;59691;-36.632;-64.320;2023-03-12T04:16:12;27.70;75.30
71843;DHT22;59691;-36.632;-64.320;2023-03-12T04:18:39;27.70;75.30
71843;DHT22;59691;-36.632;-64.320;2023-03-12T04:21:06;27.70;75.40
71843;DHT22;59691;-36.632;-64.320;2023-03-12T04:23:33;27.70;75.50
71843;DHT22;59691;-36.632;-64.320;2023-03-12T04:26:00;27.70;75.50
71843;DHT22;59691;-36.632;-64.320;2023-03-12T04:28:26;27.70;75.60
71843;DHT22;59691;-36.632;-64.320;2023-03-12T04:30:59;27.60;75.60
71843;DHT22;59691;-36.632;-64.320;2023-03-12T04:33:29;27.70;75.70
71843;DHT22;59691;-36.632;-64.320;2023-03-12T04:35:56;27.60;75.70
71843;DHT22;59691;-36.632;-64.320;2023-03-12T04:38:23;27.60;75.70
71843;DHT22;59691;-36.632;-64.320;2023-03-12T04:40:57;27.60;75.70
71843;DHT22;59691;-36.632;-64.320;2023-03-12T04:43:23;27.60;75.80
71843;DHT22;59691;-36.632;-64.320;2023-03-12T04:45:50;27.60;75.70
71843;DHT22;59691;-36.632;-64.320;2023-03-12T04:48:16;27.60;75.80
71843;DHT22;59691;-36.632;-64.320;2023-03-12T04:50:42;27.60;75.70
71843;DHT22;59691;-36.632;-64.320;2023-03-12T04:53:09;27.60;75.70
71843;DHT22;59691;-36.632;-64.320;2023-03-12T04:55:35;27.60;75.70
71843;DHT22;59691;-36.632;-64.320;2023-03-12T04:58:02;27.60;75.70
71843;DHT22;59691;-36.632;-64.320;2023-03-12T05:00:28;27.60;75.70
71843;DHT22;59691;-36.632;-64.320;2023-03-12T05:02:54;27.60;75.70
71843;DHT22;59691;-36.632;-64.320;2023-03-12T05:05:21;27.60;75.70
71843;DHT22;59691;-36.632;-64.320;2023-03-12T05:07:47;27.60;75.70
71843;DHT22;59691;-36.632;-64.320;2023-03-12T05:10:13;27.60;75.70
71843;DHT22;59691;-36.632;-64.320;2023-03-12T05:12:40;27.60;75.70
71843;DHT22;59691;-36.632;-64.320;2023-03-12T05:15:06;27.60;75.70
71843;DHT22;59691;-36.632;-64.320;2023-03-12T05:17:33;27.60;75.70
71843;DHT22;59691;-36.632;-64.320;2023-03-12T05:19:59;27.60;75.70
71843;DHT22;59691;-36.632;-64.320;2023-03-12T05:22:25;27.60;75.70
71843;DHT22;59691;-36.632;-64.320;2023-03-12T05:24:52;27.60;75.70
71843;DHT22;59691;-36.632;-64.320;2023-03-12T05:27:18;27.60;75.70
71843;DHT22;59691;-36.632;-64.320;2023-03-12T05:29:44;27.60;75.70
71843;DHT22;59691;-36.632;-64.320;2023-03-12T05:32:11;27.60;75.70
71843;DHT22;59691;-36.632;-64.320;2023-03-12T05:34:37;27.60;75.80
71843;DHT22;59691;-36.632;-64.320;2023-03-12T05:37:03;27.60;75.80
71843;DHT22;59691;-36.632;-64.320;2023-03-12T05:39:30;27.60;75.80
71843;DHT22;59691;-36.632;-64.320;2023-03-12T05:41:56;27.60;75.80
71843;DHT22;59691;-36.632;-64.320;2023-03-12T05:44:23;27.50;75.80
71843;DHT22;59691;-36.632;-64.320;2023-03-12T05:46:50;27.60;75.90
71843;DHT22;59691;-36.632;-64.320;2023-03-12T05:49:17;27.60;75.90
71843;DHT22;59691;-36.632;-64.320;2023-03-12T05:51:43;27.50;75.80
71843;DHT22;59691;-36.632;-64.320;2023-03-12T05:54:11;27.50;75.80
71843;DHT22;59691;-36.632;-64.320;2023-03-12T05:56:37;27.50;75.80
71843;DHT22;59691;-36.632;-64.320;2023-03-12T05:59:04;27.50;76.10
71843;DHT22;59691;-36.632;-64.320;2023-03-12T06:01:31;27.50;75.80
71843;DHT22;59691;-36.632;-64.320;2023-03-12T06:03:58;27.50;75.80
71843;DHT22;59691;-36.632;-64.320;2023-03-12T06:06:24;27.50;75.80
71843;DHT22;59691;-36.632;-64.320;2023-03-12T06:08:50;27.50;75.80
71843;DHT22;59691;-36.632;-64.320;2023-03-12T06:11:17;27.50;75.80
71843;DHT22;59691;-36.632;-64.320;2023-03-12T06:13:43;27.50;75.80
71843;DHT22;59691;-36.632;-64.320;2023-03-12T06:16:11;27.50;75.80
71843;DHT22;59691;-36.632;-64.320;2023-03-12T06:18:40;27.50;75.80
71843;DHT22;59691;-36.632;-64.320;2023-03-12T06:21:17;27.50;75.80
71843;DHT22;59691;-36.632;-64.320;2023-03-12T06:23:44;27.50;75.80
71843;DHT22;59691;-36.632;-64.320;2023-03-12T06:26:10;27.50;75.70
71843;DHT22;59691;-36.632;-64.320;2023-03-12T06:28:37;27.50;75.80
71843;DHT22;59691;-36.632;-64.320;2023-03-12T06:31:03;27.50;75.80
71843;DHT22;59691;-36.632;-64.320;2023-03-12T06:33:30;27.50;76.50
71843;DHT22;59691;-36.632;-64.320;2023-03-12T06:35:57;27.50;75.80
71843;DHT22;59691;-36.632;-64.320;2023-03-12T06:38:24;27.40;75.60
71843;DHT22;59691;-36.632;-64.320;2023-03-12T06:40:54;27.40;75.60
71843;DHT22;59691;-36.632;-64.320;2023-03-12T06:43:21;27.40;75.00
71843;DHT22;59691;-36.632;-64.320;2023-03-12T06:45:48;27.40;75.60
71843;DHT22;59691;-36.632;-64.320;2023-03-12T06:48:14;27.40;75.60
71843;DHT22;59691;-36.632;-64.320;2023-03-12T06:50:40;27.40;75.60
71843;DHT22;59691;-36.632;-64.320;2023-03-12T06:53:07;27.40;75.60
71843;DHT22;59691;-36.632;-64.320;2023-03-12T06:55:33;27.40;75.60
71843;DHT22;59691;-36.632;-64.320;2023-03-12T06:57:59;27.40;75.50
71843;DHT22;59691;-36.632;-64.320;2023-03-12T07:00:26;27.40;75.50
71843;DHT22;59691;-36.632;-64.320;2023-03-12T07:02:53;27.40;75.50
71843;DHT22;59691;-36.632;-64.320;2023-03-12T07:05:19;27.40;75.50
71843;DHT22;59691;-36.632;-64.320;2023-03-12T07:07:45;27.30;75.40
71843;DHT22;59691;-36.632;-64.320;2023-03-12T07:10:12;27.30;75.30
71843;DHT22;59691;-36.632;-64.320;2023-03-12T07:12:38;27.30;75.40
71843;DHT22;59691;-36.632;-64.320;2023-03-12T07:15:05;27.30;75.30
71843;DHT22;59691;-36.632;-64.320;2023-03-12T07:17:31;27.30;75.30
71843;DHT22;59691;-36.632;-64.320;2023-03-12T07:19:57;27.30;75.30
71843;DHT22;59691;-36.632;-64.320;2023-03-12T07:22:24;27.30;74.60
71843;DHT22;59691;-36.632;-64.320;2023-03-12T07:24:50;27.30;75.10
71843;DHT22;59691;-36.632;-64.320;2023-03-12T07:27:17;27.30;75.10
71843;DHT22;59691;-36.632;-64.320;2023-03-12T07:29:43;27.30;75.10
71843;DHT22;59691;-36.632;-64.320;2023-03-12T07:32:10;27.30;75.00
71843;DHT22;59691;-36.632;-64.320;2023-03-12T07:34:36;27.30;75.00
71843;DHT22;59691;-36.632;-64.320;2023-03-12T07:37:03;27.30;75.00
71843;DHT22;59691;-36.632;-64.320;2023-03-12T07:39:29;27.30;75.00
71843;DHT22;59691;-36.632;-64.320;2023-03-12T07:41:56;27.30;74.90
71843;DHT22;59691;-36.632;-64.320;2023-03-12T07:44:22;27.30;74.90
71843;DHT22;59691;-36.632;-64.320;2023-03-12T07:46:51;27.30;74.90
71843;DHT22;59691;-36.632;-64.320;2023-03-12T07:49:17;27.30;74.80
71843;DHT22;59691;-36.632;-64.320;2023-03-12T07:51:44;27.30;74.90
71843;DHT22;59691;-36.632;-64.320;2023-03-12T07:54:11;27.20;74.10
71843;DHT22;59691;-36.632;-64.320;2023-03-12T07:56:37;27.30;74.90
71843;DHT22;59691;-36.632;-64.320;2023-03-12T07:59:03;27.30;74.70
71843;DHT22;59691;-36.632;-64.320;2023-03-12T08:01:30;27.20;74.70
71843;DHT22;59691;-36.632;-64.320;2023-03-12T08:03:59;27.20;74.70
71843;DHT22;59691;-36.632;-64.320;2023-03-12T08:06:26;27.20;74.60
71843;DHT22;59691;-36.632;-64.320;2023-03-12T08:08:53;27.20;74.60
71843;DHT22;59691;-36.632;-64.320;2023-03-12T08:11:19;27.20;74.60
71843;DHT22;59691;-36.632;-64.320;2023-03-12T08:13:46;27.20;74.60
71843;DHT22;59691;-36.632;-64.320;2023-03-12T08:16:12;27.20;74.50
71843;DHT22;59691;-36.632;-64.320;2023-03-12T08:18:39;27.20;74.50
71843;DHT22;59691;-36.632;-64.320;2023-03-12T08:21:07;27.20;74.60
71843;DHT22;59691;-36.632;-64.320;2023-03-12T08:23:34;27.20;74.60
71843;DHT22;59691;-36.632;-64.320;2023-03-12T08:26:00;27.20;74.50
71843;DHT22;59691;-36.632;-64.320;2023-03-12T08:28:26;27.20;74.60
71843;DHT22;59691;-36.632;-64.320;2023-03-12T08:30:53;27.10;74.50
71843;DHT22;59691;-36.632;-64.320;2023-03-12T08:33:21;27.10;74.50
71843;DHT22;59691;-36.632;-64.320;2023-03-12T08:35:47;27.10;74.50
71843;DHT22;59691;-36.632;-64.320;2023-03-12T08:38:14;27.10;74.50
71843;DHT22;59691;-36.632;-64.320;2023-03-12T08:40:40;27.20;74.60
71843;DHT22;59691;-36.632;-64.320;2023-03-12T08:43:06;27.10;74.50
71843;DHT22;59691;-36.632;-64.320;2023-03-12T08:45:33;27.10;74.50
71843;DHT22;59691;-36.632;-64.320;2023-03-12T08:48:03;27.10;74.50
71843;DHT22;59691;-36.632;-64.320;2023-03-12T08:50:30;27.10;74.50
71843;DHT22;59691;-36.632;-64.320;2023-03-12T08:52:57;27.10;74.50
71843;DHT22;59691;-36.632;-64.320;2023-03-12T08:55:24;27.10;74.50
71843;DHT22;59691;-36.632;-64.320;2023-03-12T08:57:53;27.00;74.40
71843;DHT22;59691;-36.632;-64.320;2023-03-12T09:00:19;27.10;74.50
71843;DHT22;59691;-36.632;-64.320;2023-03-12T09:02:46;27.00;74.40
71843;DHT22;59691;-36.632;-64.320;2023-03-12T09:05:12;27.00;74.40
71843;DHT22;59691;-36.632;-64.320;2023-03-12T09:07:39;27.00;74.40
71843;DHT22;59691;-36.632;-64.320;2023-03-12T09:10:06;27.00;74.40
71843;DHT22;59691;-36.632;-64.320;2023-03-12T09:12:32;27.00;74.40
71843;DHT22;59691;-36.632;-64.320;2023-03-12T09:14:59;27.00;74.40
71843;DHT22;59691;-36.632;-64.320;2023-03-12T09:17:27;27.00;74.40
71843;DHT22;59691;-36.632;-64.320;2023-03-12T09:19:53;26.90;74.40
71843;DHT22;59691;-36.632;-64.320;2023-03-12T09:22:19;26.90;74.40
71843;DHT22;59691;-36.632;-64.320;2023-03-12T09:24:46;26.90;74.40
71843;DHT22;59691;-36.632;-64.320;2023-03-12T09:27:12;26.90;74.40
71843;DHT22;59691;-36.632;-64.320;2023-03-12T09:29:39;26.90;74.40
71843;DHT22;59691;-36.632;-64.320;2023-03-12T09:32:06;26.90;74.40
71843;DHT22;59691;-36.632;-64.320;2023-03-12T09:34:32;26.90;74.40
71843;DHT22;59691;-36.632;-64.320;2023-03-12T09:36:59;26.90;74.50
71843;DHT22;59691;-36.632;-64.320;2023-03-12T09:39:25;26.90;74.40
71843;DHT22;59691;-36.632;-64.320;2023-03-12T09:41:51;26.90;74.40
71843;DHT22;59691;-36.632;-64.320;2023-03-12T09:44:19;26.90;74.40
71843;DHT22;59691;-36.632;-64.320;2023-03-12T09:46:54;26.90;74.40
71843;DHT22;59691;-36.632;-64.320;2023-03-12T09:49:36;26.90;75.10
71843;DHT22;59691;-36.632;-64.320;2023-03-12T09:55:07;26.90;75.60
71843;DHT22;59691;-36.632;-64.320;2023-03-12T09:57:39;26.90;75.80
71843;DHT22;59691;-36.632;-64.320;2023-03-12T10:00:16;26.90;75.70
71843;DHT22;59691;-36.632;-64.320;2023-03-12T10:08:38;26.90;75.50
71843;DHT22;59691;-36.632;-64.320;2023-03-12T10:11:13;26.80;75.40
71843;DHT22;59691;-36.632;-64.320;2023-03-12T10:24:03;26.80;76.30
71843;DHT22;59691;-36.632;-64.320;2023-03-12T10:26:33;26.80;76.40
71843;DHT22;59691;-36.632;-64.320;2023-03-12T10:36:51;26.70;76.50
71843;DHT22;59691;-36.632;-64.320;2023-03-12T10:39:18;26.70;76.60
71843;DHT22;59691;-36.632;-64.320;2023-03-12T10:41:45;26.70;76.70
71843;DHT22;59691;-36.632;-64.320;2023-03-12T10:44:22;26.70;77.00
71843;DHT22;59691;-36.632;-64.320;2023-03-12T10:49:25;26.70;77.10
71843;DHT22;59691;-36.632;-64.320;2023-03-12T10:54:37;26.60;77.10
71843;DHT22;59691;-36.632;-64.320;2023-03-12T10:57:05;26.60;77.10
71843;DHT22;59691;-36.632;-64.320;2023-03-12T10:59:33;26.60;77.10
71843;DHT22;59691;-36.632;-64.320;2023-03-12T11:02:00;26.60;77.10
71843;DHT22;59691;-36.632;-64.320;2023-03-12T11:04:30;26.60;77.00
71843;DHT22;59691;-36.632;-64.320;2023-03-12T11:07:17;26.60;77.00
71843;DHT22;59691;-36.632;-64.320;2023-03-12T11:09:44;26.60;76.90
71843;DHT22;59691;-36.632;-64.320;2023-03-12T11:12:29;26.60;77.00
71843;DHT22;59691;-36.632;-64.320;2023-03-12T11:14:56;26.60;76.90
71843;DHT22;59691;-36.632;-64.320;2023-03-12T11:17:23;26.60;76.90
71843;DHT22;59691;-36.632;-64.320;2023-03-12T11:19:50;26.60;77.10
71843;DHT22;59691;-36.632;-64.320;2023-03-12T11:22:32;26.60;77.30
71843;DHT22;59691;-36.632;-64.320;2023-03-12T11:25:00;26.60;77.60
71843;DHT22;59691;-36.632;-64.320;2023-03-12T11:27:40;26.60;77.80
71843;DHT22;59691;-36.632;-64.320;2023-03-12T11:30:11;26.60;78.50
71843;DHT22;59691;-36.632;-64.320;2023-03-12T11:32:43;26.60;77.80
71843;DHT22;59691;-36.632;-64.320;2023-03-12T11:35:11;26.60;77.90
71843;DHT22;59691;-36.632;-64.320;2023-03-12T11:37:48;26.60;77.90
71843;DHT22;59691;-36.632;-64.320;2023-03-12T11:40:41;26.60;78.00
71843;DHT22;59691;-36.632;-64.320;2023-03-12T11:45:44;26.60;78.00
71843;DHT22;59691;-36.632;-64.320;2023-03-12T11:53:24;26.60;78.90
71843;DHT22;59691;-36.632;-64.320;2023-03-12T12:06:58;26.70;80.60
71843;DHT22;59691;-36.632;-64.320;2023-03-12T12:22:38;26.80;83.30
71843;DHT22;59691;-36.632;-64.320;2023-03-12T12:35:43;26.80;83.50
71843;DHT22;59691;-36.632;-64.320;2023-03-12T12:40:47;26.90;83.40
71843;DHT22;59691;-36.632;-64.320;2023-03-12T12:45:41;26.80;83.10
71843;DHT22;59691;-36.632;-64.320;2023-03-12T12:48:10;26.80;83.00
71843;DHT22;59691;-36.632;-64.320;2023-03-12T12:50:38;26.80;82.80
71843;DHT22;59691;-36.632;-64.320;2023-03-12T12:53:07;26.80;82.70
71843;DHT22;59691;-36.632;-64.320;2023-03-12T12:55:38;26.80;82.70
71843;DHT22;59691;-36.632;-64.320;2023-03-12T12:58:14;26.80;82.70
71843;DHT22;59691;-36.632;-64.320;2023-03-12T13:00:44;26.80;82.60
71843;DHT22;59691;-36.632;-64.320;2023-03-12T13:03:18;26.80;82.60
71843;DHT22;59691;-36.632;-64.320;2023-03-12T13:05:53;26.80;82.50
71843;DHT22;59691;-36.632;-64.320;2023-03-12T13:08:33;26.80;82.40
71843;DHT22;59691;-36.632;-64.320;2023-03-12T13:14:14;26.90;82.30
71843;DHT22;59691;-36.632;-64.320;2023-03-12T13:16:39;26.90;82.30
71843;DHT22;59691;-36.632;-64.320;2023-03-12T13:24:14;26.90;81.90
71843;DHT22;59691;-36.632;-64.320;2023-03-12T13:29:50;27.00;81.80
71843;DHT22;59691;-36.632;-64.320;2023-03-12T13:31:57;27.00;81.70
71843;DHT22;59691;-36.632;-64.320;2023-03-12T13:36:50;27.00;81.40
71843;DHT22;59691;-36.632;-64.320;2023-03-12T13:39:32;27.10;81.50
71843;DHT22;59691;-36.632;-64.320;2023-03-12T13:41:59;27.10;81.30
71843;DHT22;59691;-36.632;-64.320;2023-03-12T13:47:16;27.10;81.10
71843;DHT22;59691;-36.632;-64.320;2023-03-12T13:50:11;27.20;81.10
71843;DHT22;59691;-36.632;-64.320;2023-03-12T13:57:42;27.20;80.80
71843;DHT22;59691;-36.632;-64.320;2023-03-12T14:03:03;27.30;80.80
71843;DHT22;59691;-36.632;-64.320;2023-03-12T14:05:30;27.30;80.70
71843;DHT22;59691;-36.632;-64.320;2023-03-12T14:08:13;27.30;80.60
71843;DHT22;59691;-36.632;-64.320;2023-03-12T14:10:55;27.30;80.50
71843;DHT22;59691;-36.632;-64.320;2023-03-12T14:13:27;27.40;80.40
71843;DHT22;59691;-36.632;-64.320;2023-03-12T14:18:42;27.40;80.20
71843;DHT22;59691;-36.632;-64.320;2023-03-12T14:21:09;27.40;80.10
71843;DHT22;59691;-36.632;-64.320;2023-03-12T14:23:40;27.40;80.00
71843;DHT22;59691;-36.632;-64.320;2023-03-12T14:26:15;27.40;80.00
71843;DHT22;59691;-36.632;-64.320;2023-03-12T14:28:51;27.50;79.90
71843;DHT22;59691;-36.632;-64.320;2023-03-12T14:31:20;27.50;79.90
71843;DHT22;59691;-36.632;-64.320;2023-03-12T14:33:59;27.50;79.80
71843;DHT22;59691;-36.632;-64.320;2023-03-12T14:36:28;27.50;79.70
71843;DHT22;59691;-36.632;-64.320;2023-03-12T14:39:07;27.50;79.60
71843;DHT22;59691;-36.632;-64.320;2023-03-12T14:41:35;27.60;79.60
71843;DHT22;59691;-36.632;-64.320;2023-03-12T14:44:20;27.60;79.50
71843;DHT22;59691;-36.632;-64.320;2023-03-12T14:49:23;27.60;79.40
71843;DHT22;59691;-36.632;-64.320;2023-03-12T14:51:49;27.60;79.40
71843;DHT22;59691;-36.632;-64.320;2023-03-12T14:54:22;27.60;79.30
71843;DHT22;59691;-36.632;-64.320;2023-03-12T14:56:49;27.60;79.20
71843;DHT22;59691;-36.632;-64.320;2023-03-12T14:59:23;27.60;79.20
71843;DHT22;59691;-36.632;-64.320;2023-03-12T15:01:49;27.60;79.10
71843;DHT22;59691;-36.632;-64.320;2023-03-12T15:04:20;27.60;79.10
71843;DHT22;59691;-36.632;-64.320;2023-03-12T15:06:48;27.60;79.10
71843;DHT22;59691;-36.632;-64.320;2023-03-12T15:09:15;27.60;79.00
71843;DHT22;59691;-36.632;-64.320;2023-03-12T15:11:43;27.70;79.10
71843;DHT22;59691;-36.632;-64.320;2023-03-12T15:14:13;27.70;79.00
71843;DHT22;59691;-36.632;-64.320;2023-03-12T15:16:41;27.70;78.90
71843;DHT22;59691;-36.632;-64.320;2023-03-12T15:19:11;27.70;78.80
71843;DHT22;59691;-36.632;-64.320;2023-03-12T15:21:38;27.70;78.80
71843;DHT22;59691;-36.632;-64.320;2023-03-12T15:24:05;27.70;78.70
71843;DHT22;59691;-36.632;-64.320;2023-03-12T15:26:32;27.70;78.00
71843;DHT22;59691;-36.632;-64.320;2023-03-12T15:31:46;27.80;78.70
71843;DHT22;59691;-36.632;-64.320;2023-03-12T15:34:13;27.80;78.60
71843;DHT22;59691;-36.632;-64.320;2023-03-12T15:36:45;27.80;78.50
71843;DHT22;59691;-36.632;-64.320;2023-03-12T15:39:19;27.80;78.40
71843;DHT22;59691;-36.632;-64.320;2023-03-12T15:41:46;27.80;78.40
71843;DHT22;59691;-36.632;-64.320;2023-03-12T15:44:16;27.90;78.50
71843;DHT22;59691;-36.632;-64.320;2023-03-12T15:46:44;27.90;78.40
71843;DHT22;59691;-36.632;-64.320;2023-03-12T15:49:12;27.90;78.40
71843;DHT22;59691;-36.632;-64.320;2023-03-12T15:51:55;27.90;78.40
71843;DHT22;59691;-36.632;-64.320;2023-03-12T15:54:26;28.00;78.30
71843;DHT22;59691;-36.632;-64.320;2023-03-12T15:56:53;28.00;78.20
71843;DHT22;59691;-36.632;-64.320;2023-03-12T15:59:27;28.00;78.20
71843;DHT22;59691;-36.632;-64.320;2023-03-12T16:01:54;28.00;78.10
71843;DHT22;59691;-36.632;-64.320;2023-03-12T16:04:21;28.10;78.00
71843;DHT22;59691;-36.632;-64.320;2023-03-12T16:06:48;28.10;77.90
71843;DHT22;59691;-36.632;-64.320;2023-03-12T16:09:18;28.10;77.80
71843;DHT22;59691;-36.632;-64.320;2023-03-12T16:11:46;28.20;77.80
71843;DHT22;59691;-36.632;-64.320;2023-03-12T16:16:39;28.20;77.60
71843;DHT22;59691;-36.632;-64.320;2023-03-12T16:19:10;28.20;77.60
71843;DHT22;59691;-36.632;-64.320;2023-03-12T16:21:36;28.30;77.60
71843;DHT22;59691;-36.632;-64.320;2023-03-12T16:24:03;28.30;77.50
71843;DHT22;59691;-36.632;-64.320;2023-03-12T16:26:30;28.30;77.50
71843;DHT22;59691;-36.632;-64.320;2023-03-12T16:28:57;28.40;77.40
71843;DHT22;59691;-36.632;-64.320;2023-03-12T16:31:24;28.40;77.30
71843;DHT22;59691;-36.632;-64.320;2023-03-12T16:33:50;28.40;77.20
71843;DHT22;59691;-36.632;-64.320;2023-03-12T16:36:16;28.50;77.10
71843;DHT22;59691;-36.632;-64.320;2023-03-12T16:38:44;28.50;77.00
71843;DHT22;59691;-36.632;-64.320;2023-03-12T16:41:17;28.50;76.90
71843;DHT22;59691;-36.632;-64.320;2023-03-12T16:43:44;28.60;76.90
71843;DHT22;59691;-36.632;-64.320;2023-03-12T16:46:15;28.60;76.80
71843;DHT22;59691;-36.632;-64.320;2023-03-12T16:48:43;28.60;76.70
71843;DHT22;59691;-36.632;-64.320;2023-03-12T16:51:13;28.60;76.50
71843;DHT22;59691;-36.632;-64.320;2023-03-12T16:53:40;28.70;76.50
71843;DHT22;59691;-36.632;-64.320;2023-03-12T16:56:10;28.70;76.50